Terminal Aerodrome Forecast
Issued by NWS St Louis, MO

Home | Current Version | Previous Version | Text Only | Print | Product List | Glossary On
Versions: 1 2 3 4 5 6 7 8 9 10 11 12 13 14 15 16 17 18 19 20 21 22
816
FTUS43 KLSX 121130
TAFCOU
TAF
KCOU 121130Z 1212/1312 09006KT P6SM OVC035
     FM121600 35005KT P6SM BKN025
     FM121800 33014G22KT P6SM SCT030
     FM130600 01008KT P6SM SCT150=

USA.gov is the U.S. government's official web portal to all federal, state and local government web resources and services.